createdAt,value
2022-09-24T00:02:11.732Z,7.82
2022-09-24T00:04:39.733Z,8.77
2022-09-24T00:07:07.823Z,13.63
2022-09-24T00:09:35.622Z,7.75
2022-09-24T00:12:04.201Z,7.82
2022-09-24T00:14:32.702Z,8.30
2022-09-24T00:17:00.516Z,7.40
2022-09-24T00:19:28.311Z,5.32
2022-09-24T00:21:56.276Z,7.95
2022-09-24T00:24:42.640Z,6.80
2022-09-24T00:27:10.969Z,8.23
2022-09-24T00:29:38.831Z,8.63
2022-09-24T00:32:06.922Z,7.60
2022-09-24T00:34:34.874Z,7.80
2022-09-24T00:37:03.064Z,6.97
2022-09-24T00:39:30.877Z,6.63
2022-09-24T00:41:58.782Z,8.13
2022-09-24T00:44:41.490Z,7.15
2022-09-24T00:47:35.022Z,7.00
2022-09-24T00:50:06.277Z,4.72
2022-09-24T00:53:09.491Z,6.13
2022-09-24T00:55:38.606Z,6.15
2022-09-24T00:58:09.015Z,6.78
2022-09-24T01:00:44.902Z,6.18
2022-09-24T01:03:23.027Z,6.13
2022-09-24T01:05:51.780Z,6.65
2022-09-24T01:08:21.116Z,5.25
2022-09-24T01:10:54.000Z,4.65
2022-09-24T01:13:43.361Z,8.00
2022-09-24T01:16:53.477Z,5.75
2022-09-24T01:20:01.064Z,4.85
2022-09-24T01:23:03.500Z,6.13
2022-09-24T01:25:50.520Z,7.03
2022-09-24T01:28:43.276Z,6.80
2022-09-24T01:31:28.359Z,5.72
2022-09-24T01:33:59.834Z,10.98
2022-09-24T01:36:29.674Z,6.15
2022-09-24T01:38:59.745Z,5.32
2022-09-24T01:41:28.053Z,3.33
2022-09-24T01:43:55.995Z,3.00
2022-09-24T01:46:25.197Z,3.92
2022-09-24T01:48:53.505Z,3.50
2022-09-24T01:51:34.783Z,3.65
2022-09-24T01:54:07.888Z,3.17
2022-09-24T01:57:04.569Z,4.50
2022-09-24T01:59:40.569Z,3.17
2022-09-24T02:02:30.669Z,3.90
2022-09-24T02:05:38.968Z,4.00
2022-09-24T02:08:23.865Z,2.97
2022-09-24T02:11:11.524Z,3.22
2022-09-24T02:13:48.352Z,3.45
2022-09-24T02:16:22.011Z,3.22
2022-09-24T02:18:54.896Z,3.42
2022-09-24T02:21:24.922Z,3.05
2022-09-24T02:24:21.426Z,4.72
2022-09-24T02:26:49.435Z,4.32
2022-09-24T02:29:18.625Z,3.63
2022-09-24T02:31:49.898Z,4.72
2022-09-24T02:34:25.920Z,4.10
2022-09-24T02:37:15.161Z,2.92
2022-09-24T02:39:43.694Z,3.33
2022-09-24T02:42:14.172Z,3.22
2022-09-24T02:44:41.926Z,4.32
2022-09-24T02:47:09.969Z,5.13
2022-09-24T02:49:37.762Z,3.38
2022-09-24T02:52:05.755Z,5.22
2022-09-24T02:54:34.198Z,4.35
2022-09-24T02:57:02.104Z,3.83
2022-09-24T02:59:29.938Z,2.67
2022-09-24T03:01:57.782Z,2.55
2022-09-24T03:04:26.309Z,3.63
2022-09-24T03:06:54.382Z,3.30
2022-09-24T03:09:22.216Z,3.33
2022-09-24T03:11:50.233Z,5.00
2022-09-24T03:14:18.161Z,3.15
2022-09-24T03:16:45.991Z,5.22
2022-09-24T03:19:13.779Z,4.65
2022-09-24T03:21:41.541Z,5.03
2022-09-24T03:24:09.361Z,4.28
2022-09-24T03:26:38.224Z,4.22
2022-09-24T03:29:05.997Z,3.80
2022-09-24T03:31:33.941Z,3.03
2022-09-24T03:34:01.851Z,3.70
2022-09-24T03:36:29.776Z,3.25
2022-09-24T03:38:58.025Z,3.90
2022-09-24T03:41:27.801Z,7.70
2022-09-24T03:43:56.403Z,6.25
2022-09-24T03:46:30.614Z,6.15
2022-09-24T03:49:00.603Z,7.60
2022-09-24T03:51:29.053Z,5.43
2022-09-24T03:53:56.838Z,6.30
2022-09-24T03:56:25.218Z,4.43
2022-09-24T03:58:53.887Z,5.30
2022-09-24T04:01:22.216Z,6.53
2022-09-24T04:03:51.033Z,6.32
2022-09-24T04:06:24.852Z,5.28
2022-09-24T04:08:54.413Z,5.78
2022-09-24T04:11:23.302Z,5.75
2022-09-24T04:13:51.779Z,8.45
2022-09-24T04:16:20.237Z,5.75
2022-09-24T04:18:48.919Z,5.20
2022-09-24T04:21:17.242Z,5.97
2022-09-24T04:23:45.548Z,6.35
2022-09-24T04:26:13.636Z,5.53
2022-09-24T04:28:41.635Z,5.43
2022-09-24T04:31:10.150Z,7.05
2022-09-24T04:33:38.160Z,5.65
2022-09-24T04:36:06.183Z,4.25
2022-09-24T04:38:34.799Z,4.72
2022-09-24T04:41:09.627Z,6.75
2022-09-24T04:43:38.008Z,3.58
2022-09-24T04:46:06.778Z,2.50
2022-09-24T04:48:38.261Z,2.75
2022-09-24T04:51:08.644Z,3.10
2022-09-24T04:53:37.444Z,3.63
2022-09-24T04:56:12.159Z,3.65
2022-09-24T04:58:40.324Z,2.80
2022-09-24T05:01:08.471Z,3.50
2022-09-24T05:03:36.448Z,3.63
2022-09-24T05:06:04.274Z,5.20
2022-09-24T05:08:32.014Z,3.95
2022-09-24T05:11:00.790Z,3.10
2022-09-24T05:13:28.675Z,3.47
2022-09-24T05:15:56.498Z,2.78
2022-09-24T05:18:24.405Z,3.17
2022-09-24T05:20:52.532Z,3.92
2022-09-24T05:23:20.342Z,3.53
2022-09-24T05:26:06.504Z,3.72
2022-09-24T05:28:35.301Z,3.78
2022-09-24T05:31:03.150Z,6.45
2022-09-24T05:33:30.918Z,3.75
2022-09-24T05:35:59.109Z,4.55
2022-09-24T05:38:27.024Z,3.35
2022-09-24T05:40:54.957Z,4.03
2022-09-24T05:43:22.925Z,3.92
2022-09-24T05:45:51.035Z,3.55
2022-09-24T05:48:18.811Z,6.35
2022-09-24T05:50:46.968Z,3.45
2022-09-24T05:53:17.691Z,3.58
2022-09-24T05:55:45.505Z,4.88
2022-09-24T05:58:13.840Z,3.42
2022-09-24T06:00:41.765Z,3.20
2022-09-24T06:03:16.748Z,3.53
2022-09-24T06:05:50.730Z,3.75
2022-09-24T06:08:20.679Z,3.17
2022-09-24T06:10:49.232Z,3.08
2022-09-24T06:13:21.025Z,3.45
2022-09-24T06:15:49.313Z,2.92
2022-09-24T06:18:17.665Z,3.00
2022-09-24T06:20:47.063Z,2.90
2022-09-24T06:23:15.034Z,2.70
2022-09-24T06:25:42.892Z,2.40
2022-09-24T06:28:11.153Z,3.50
2022-09-24T06:30:39.636Z,2.67
2022-09-24T06:33:12.778Z,3.28
2022-09-24T06:35:42.846Z,2.95
2022-09-24T06:38:16.294Z,3.33
2022-09-24T06:40:47.039Z,3.15
2022-09-24T06:43:15.429Z,3.22
2022-09-24T06:45:43.214Z,2.72
2022-09-24T06:48:14.178Z,2.80
2022-09-24T06:50:45.528Z,2.85
2022-09-24T06:53:13.533Z,3.63
2022-09-24T06:55:42.275Z,2.15
2022-09-24T06:58:23.650Z,3.55
2022-09-24T07:01:02.948Z,3.20
2022-09-24T07:03:33.684Z,2.38
2022-09-24T07:06:04.667Z,2.70
2022-09-24T07:08:33.099Z,3.45
2022-09-24T07:11:01.636Z,3.08
2022-09-24T07:13:29.672Z,2.47
2022-09-24T07:15:57.483Z,3.33
2022-09-24T07:18:25.318Z,3.28
2022-09-24T07:20:57.085Z,2.47
2022-09-24T07:23:24.885Z,4.15
2022-09-24T07:25:57.382Z,3.25
2022-09-24T07:28:25.633Z,2.95
2022-09-24T07:30:58.632Z,3.30
2022-09-24T07:33:26.594Z,3.35
2022-09-24T07:35:54.352Z,3.03
2022-09-24T07:38:22.546Z,2.97
2022-09-24T07:40:50.488Z,3.60
2022-09-24T07:43:18.348Z,3.13
2022-09-24T07:45:46.408Z,3.47
2022-09-24T07:48:15.814Z,3.15
2022-09-24T07:50:43.705Z,3.33
2022-09-24T07:53:12.913Z,3.03
2022-09-24T07:55:41.523Z,3.38
2022-09-24T07:58:16.514Z,2.75
2022-09-24T08:00:44.481Z,2.63
2022-09-24T08:03:12.384Z,3.47
2022-09-24T08:05:47.906Z,2.58
2022-09-24T08:08:16.187Z,3.15
2022-09-24T08:10:44.450Z,3.92
2022-09-24T08:13:12.364Z,3.25
2022-09-24T08:15:40.906Z,2.72
2022-09-24T08:18:09.285Z,2.47
2022-09-24T08:20:38.772Z,3.00
2022-09-24T08:23:12.660Z,3.08
2022-09-24T08:25:40.551Z,2.80
2022-09-24T08:28:12.218Z,3.05
2022-09-24T08:30:40.978Z,2.97
2022-09-24T08:33:09.692Z,3.22
2022-09-24T08:35:40.342Z,3.53
2022-09-24T08:38:09.307Z,2.85
2022-09-24T08:40:51.124Z,2.88
2022-09-24T08:43:39.998Z,2.92
2022-09-24T08:46:42.898Z,2.13
2022-09-24T08:49:18.191Z,2.88
2022-09-24T08:52:31.246Z,2.63
2022-09-24T08:55:07.831Z,3.42
2022-09-24T08:58:06.224Z,2.75
2022-09-24T09:00:53.416Z,2.83
2022-09-24T09:03:39.627Z,2.72
2022-09-24T09:06:32.425Z,2.58
2022-09-24T09:09:22.902Z,2.65
2022-09-24T09:11:59.639Z,2.97
2022-09-24T09:14:54.934Z,2.60
2022-09-24T09:17:52.149Z,2.20
2022-09-24T09:20:30.782Z,2.28
2022-09-24T09:23:05.887Z,3.13
2022-09-24T09:25:36.969Z,2.63
2022-09-24T09:28:15.779Z,3.05
2022-09-24T09:31:04.547Z,2.60
2022-09-24T09:33:50.939Z,2.78
2022-09-24T09:36:53.356Z,2.70
2022-09-24T09:39:59.542Z,3.50
2022-09-24T09:42:36.046Z,3.83
2022-09-24T09:45:34.436Z,4.75
2022-09-24T09:48:03.677Z,3.00
2022-09-24T09:50:46.517Z,3.50
2022-09-24T09:53:31.242Z,3.50
2022-09-24T09:56:06.504Z,2.67
2022-09-24T09:58:37.884Z,3.08
2022-09-24T10:01:13.144Z,2.85
2022-09-24T10:03:47.096Z,2.70
2022-09-24T10:06:28.479Z,3.25
2022-09-24T10:09:17.527Z,2.67
2022-09-24T10:11:46.451Z,3.00
2022-09-24T10:14:26.466Z,3.08
2022-09-24T10:17:09.658Z,2.72
2022-09-24T10:19:50.497Z,3.15
2022-09-24T10:22:36.594Z,2.85
2022-09-24T10:25:05.293Z,3.17
2022-09-24T10:27:36.669Z,2.58
2022-09-24T10:30:35.113Z,2.40
2022-09-24T10:33:04.974Z,2.58
2022-09-24T10:35:38.765Z,3.38
2022-09-24T10:38:22.226Z,2.97
2022-09-24T10:40:51.992Z,2.80
2022-09-24T10:43:22.394Z,2.92
2022-09-24T10:46:10.036Z,3.30
2022-09-24T10:48:55.105Z,3.22
2022-09-24T10:51:57.825Z,2.05
2022-09-24T10:54:48.914Z,2.95
2022-09-24T10:57:31.949Z,2.85
2022-09-24T11:00:20.296Z,2.78
2022-09-24T11:03:06.250Z,3.25
2022-09-24T11:05:45.243Z,2.60
2022-09-24T11:08:46.537Z,2.55
2022-09-24T11:11:56.994Z,2.60
2022-09-24T11:14:38.734Z,2.88
2022-09-24T11:17:24.687Z,2.33
2022-09-24T11:20:13.302Z,2.55
2022-09-24T11:23:11.443Z,2.58
2022-09-24T11:25:51.728Z,2.45
2022-09-24T11:28:38.733Z,3.10
2022-09-24T11:31:50.474Z,3.17
2022-09-24T11:35:06.378Z,3.53
2022-09-24T11:37:40.064Z,3.35
2022-09-24T11:40:30.161Z,3.47
2022-09-24T11:43:26.559Z,3.22
2022-09-24T11:46:10.398Z,4.45
2022-09-24T11:49:10.105Z,3.60
2022-09-24T11:51:54.705Z,7.43
2022-09-24T11:55:12.101Z,4.63
2022-09-24T11:57:59.835Z,3.83
2022-09-24T12:00:40.621Z,3.88
2022-09-24T12:03:36.694Z,3.78
2022-09-24T12:06:47.405Z,3.70
2022-09-24T12:09:40.823Z,4.07
2022-09-24T12:12:23.254Z,3.33
2022-09-24T12:15:24.679Z,2.97
2022-09-24T12:18:02.780Z,3.88
2022-09-24T12:20:41.657Z,4.07
2022-09-24T12:23:13.562Z,5.55
2022-09-24T12:25:45.854Z,3.60
2022-09-24T12:28:37.566Z,3.25
2022-09-24T12:31:48.724Z,4.75
2022-09-24T12:34:31.278Z,3.72
2022-09-24T12:37:10.680Z,3.38
2022-09-24T12:40:35.925Z,3.35
2022-09-24T12:43:25.311Z,2.65
2022-09-24T12:46:02.415Z,2.50
2022-09-24T12:48:34.859Z,2.20
2022-09-24T12:51:06.705Z,2.70
2022-09-24T12:53:38.551Z,2.90
2022-09-24T12:56:07.490Z,2.65
2022-09-24T12:58:44.757Z,3.03
2022-09-24T13:01:23.327Z,3.17
2022-09-24T13:04:26.886Z,3.78
2022-09-24T13:06:55.425Z,2.45
2022-09-24T13:09:37.833Z,5.40
2022-09-24T13:12:21.854Z,2.13
2022-09-24T13:15:02.982Z,2.47
2022-09-24T13:17:34.193Z,2.67
2022-09-24T13:20:09.320Z,2.75
2022-09-24T13:22:38.071Z,2.47
2022-09-24T13:25:27.294Z,2.70
2022-09-24T13:28:04.713Z,2.63
2022-09-24T13:30:38.075Z,2.85
2022-09-24T13:33:10.009Z,2.53
2022-09-24T13:35:50.581Z,3.38
2022-09-24T13:38:22.521Z,2.50
2022-09-24T13:41:02.570Z,3.17
2022-09-24T13:43:47.483Z,2.95
2022-09-24T13:46:19.696Z,2.78
2022-09-24T13:49:11.246Z,3.75
2022-09-24T13:51:40.702Z,3.92
2022-09-24T13:54:30.271Z,2.78
2022-09-24T13:57:11.371Z,2.58
2022-09-24T13:59:39.272Z,2.83
2022-09-24T14:02:27.955Z,2.72
2022-09-24T14:05:01.145Z,6.43
2022-09-24T14:07:29.727Z,2.40
2022-09-24T14:10:13.880Z,3.85
2022-09-24T14:12:41.704Z,4.90
2022-09-24T14:15:18.909Z,2.63
2022-09-24T14:17:59.225Z,3.80
2022-09-24T14:20:34.335Z,3.45
2022-09-24T14:23:04.518Z,3.58
2022-09-24T14:25:36.661Z,2.40
2022-09-24T14:28:05.900Z,3.05
2022-09-24T14:30:40.304Z,3.33
2022-09-24T14:33:17.117Z,2.88
2022-09-24T14:35:48.958Z,3.40
2022-09-24T14:38:25.739Z,3.00
2022-09-24T14:41:18.791Z,3.80
2022-09-24T14:44:00.875Z,4.57
2022-09-24T14:46:36.519Z,6.32
2022-09-24T14:49:31.623Z,5.38
2022-09-24T14:52:07.250Z,5.85
2022-09-24T14:54:41.256Z,6.72
2022-09-24T14:57:36.372Z,5.30
2022-09-24T15:00:48.741Z,4.47
2022-09-24T15:03:20.811Z,5.55
2022-09-24T15:05:48.762Z,4.72
2022-09-24T15:08:22.531Z,4.65
2022-09-24T15:10:57.475Z,4.18
2022-09-24T15:13:37.428Z,6.72
2022-09-24T15:16:32.391Z,4.20
2022-09-24T15:19:16.980Z,4.00
2022-09-24T15:21:49.117Z,5.03
2022-09-24T15:24:18.146Z,4.85
2022-09-24T15:26:50.701Z,4.40
2022-09-24T15:29:24.498Z,4.38
2022-09-24T15:31:54.356Z,4.88
2022-09-24T15:34:22.641Z,4.70
2022-09-24T15:36:59.564Z,3.97
2022-09-24T15:39:28.600Z,4.35
2022-09-24T15:41:57.989Z,4.18
2022-09-24T15:44:32.932Z,5.60
2022-09-24T15:47:01.779Z,2.40
2022-09-24T15:49:30.086Z,2.65
2022-09-24T15:52:24.756Z,3.33
2022-09-24T15:54:55.319Z,3.10
2022-09-24T15:57:23.423Z,2.92
2022-09-24T15:59:51.359Z,2.92
2022-09-24T16:02:28.944Z,3.17
2022-09-24T16:05:02.679Z,2.58
2022-09-24T16:07:31.962Z,3.50
2022-09-24T16:09:59.995Z,3.00
2022-09-24T16:12:28.372Z,3.42
2022-09-24T16:14:59.301Z,3.15
2022-09-24T16:17:28.776Z,3.05
2022-09-24T16:19:57.167Z,3.53
2022-09-24T16:22:25.198Z,3.10
2022-09-24T16:24:54.266Z,3.33
2022-09-24T16:27:22.619Z,2.83
2022-09-24T16:29:50.809Z,3.80
2022-09-24T16:32:18.679Z,2.92
2022-09-24T16:34:46.914Z,2.75
2022-09-24T16:37:16.787Z,3.75
2022-09-24T16:39:45.093Z,3.53
2022-09-24T16:42:12.837Z,3.20
2022-09-24T16:44:40.811Z,3.15
2022-09-24T16:47:08.851Z,2.80
2022-09-24T16:49:37.225Z,3.75
2022-09-24T16:52:06.298Z,2.47
2022-09-24T16:54:34.370Z,3.05
2022-09-24T16:57:03.574Z,3.00
2022-09-24T16:59:31.359Z,3.05
2022-09-24T17:01:59.989Z,3.22
2022-09-24T17:04:28.477Z,3.20
2022-09-24T17:06:59.187Z,2.85
2022-09-24T17:09:46.262Z,2.63
2022-09-24T17:12:14.067Z,2.53
2022-09-24T17:14:42.053Z,2.75
2022-09-24T17:17:09.932Z,3.00
2022-09-24T17:19:37.763Z,2.70
2022-09-24T17:22:05.637Z,3.05
2022-09-24T17:24:35.970Z,3.22
2022-09-24T17:27:03.870Z,3.70
2022-09-24T17:29:31.991Z,3.70
2022-09-24T17:32:00.116Z,4.22
2022-09-24T17:34:28.196Z,4.53
2022-09-24T17:36:57.132Z,3.70
2022-09-24T17:39:25.279Z,3.78
2022-09-24T17:41:53.078Z,7.35
2022-09-24T17:44:21.009Z,4.32
2022-09-24T17:46:48.861Z,4.75
2022-09-24T17:49:16.814Z,3.35
2022-09-24T17:51:47.550Z,3.90
2022-09-24T17:54:21.238Z,3.58
2022-09-24T17:56:49.664Z,3.05
2022-09-24T17:59:17.517Z,3.92
2022-09-24T18:01:46.493Z,3.10
2022-09-24T18:04:19.319Z,3.80
2022-09-24T18:06:49.631Z,2.58
2022-09-24T18:09:18.825Z,3.78
2022-09-24T18:11:52.518Z,3.10
2022-09-24T18:14:22.737Z,4.10
2022-09-24T18:16:51.212Z,5.35
2022-09-24T18:19:19.252Z,3.60
2022-09-24T18:21:49.256Z,4.38
2022-09-24T18:24:17.542Z,3.50
2022-09-24T18:26:49.505Z,3.65
2022-09-24T18:29:20.160Z,4.55
2022-09-24T18:31:48.387Z,6.00
2022-09-24T18:34:17.733Z,5.38
2022-09-24T18:36:48.276Z,4.18
2022-09-24T18:39:21.778Z,3.65
2022-09-24T18:41:52.067Z,3.10
2022-09-24T18:44:19.948Z,2.53
2022-09-24T18:46:48.141Z,2.90
2022-09-24T18:49:17.470Z,3.10
2022-09-24T18:51:46.614Z,3.08
2022-09-24T18:54:15.710Z,2.65
2022-09-24T18:56:43.953Z,3.20
2022-09-24T18:59:18.439Z,2.85
2022-09-24T19:01:48.664Z,3.47
2022-09-24T19:04:18.208Z,3.55
2022-09-24T19:06:50.837Z,3.85
2022-09-24T19:09:20.480Z,4.50
2022-09-24T19:14:40.244Z,5.93
2022-09-24T19:17:08.286Z,5.55
2022-09-24T19:19:36.834Z,4.72
2022-09-24T19:22:04.724Z,4.65
2022-09-24T19:24:32.756Z,4.15
2022-09-24T19:27:00.589Z,5.97
2022-09-24T19:29:28.563Z,5.72
2022-09-24T19:31:56.431Z,4.57
2022-09-24T19:34:24.207Z,4.32
2022-09-24T19:36:52.254Z,5.30
2022-09-24T19:39:20.234Z,4.40
2022-09-24T19:41:51.595Z,5.13
2022-09-24T19:44:19.598Z,4.45
2022-09-24T19:46:47.449Z,5.35
2022-09-24T19:49:15.332Z,4.38
2022-09-24T19:51:43.330Z,4.75
2022-09-24T19:54:11.624Z,4.65
2022-09-24T19:56:40.146Z,3.80
2022-09-24T19:59:09.614Z,3.72
2022-09-24T20:01:37.943Z,4.88
2022-09-24T20:04:07.882Z,3.53
2022-09-24T20:06:37.681Z,3.67
2022-09-24T20:09:06.997Z,3.40
2022-09-24T20:11:35.801Z,2.58
2022-09-24T20:14:06.215Z,4.55
2022-09-24T20:16:34.748Z,4.22
2022-09-24T20:19:03.522Z,5.13
2022-09-24T20:21:38.237Z,3.30
2022-09-24T20:24:10.010Z,5.00
2022-09-24T20:26:58.164Z,4.45
2022-09-24T20:29:25.949Z,4.72
2022-09-24T20:31:56.239Z,4.28
2022-09-24T20:34:28.836Z,3.80
2022-09-24T20:37:01.665Z,4.95
2022-09-24T20:39:30.469Z,4.10
2022-09-24T20:42:06.058Z,4.03
2022-09-24T20:44:34.623Z,5.40
2022-09-24T20:47:02.491Z,4.38
2022-09-24T20:49:30.625Z,4.03
2022-09-24T20:51:58.634Z,5.05
2022-09-24T20:54:28.701Z,5.07
2022-09-24T20:56:57.308Z,5.20
2022-09-24T20:59:26.743Z,4.45
2022-09-24T21:01:55.320Z,5.30
2022-09-24T21:04:24.341Z,3.95
2022-09-24T21:06:52.580Z,4.68
2022-09-24T21:09:20.552Z,4.20
2022-09-24T21:11:50.570Z,5.07
2022-09-24T21:14:19.185Z,5.10
2022-09-24T21:16:47.480Z,5.88
2022-09-24T21:19:16.083Z,5.30
2022-09-24T21:21:43.976Z,4.60
2022-09-24T21:24:15.383Z,3.03
2022-09-24T21:26:45.355Z,5.07
2022-09-24T21:29:18.219Z,3.55
2022-09-24T21:31:47.808Z,4.47
2022-09-24T21:34:19.865Z,5.28
2022-09-24T21:36:48.228Z,3.65
2022-09-24T21:39:31.347Z,4.18
2022-09-24T21:41:59.444Z,4.38
2022-09-24T21:44:34.597Z,3.53
2022-09-24T21:47:03.475Z,3.63
2022-09-24T21:49:33.663Z,5.70
2022-09-24T21:52:04.935Z,4.72
2022-09-24T21:54:33.621Z,4.07
2022-09-24T21:57:01.704Z,4.65
2022-09-24T21:59:47.802Z,4.70
2022-09-24T22:02:15.791Z,5.00
2022-09-24T22:04:44.430Z,3.85
2022-09-24T22:07:12.880Z,4.70
2022-09-24T22:09:41.110Z,3.80
2022-09-24T22:12:10.606Z,4.00
2022-09-24T22:14:43.282Z,4.95
2022-09-24T22:17:11.751Z,3.88
2022-09-24T22:19:40.235Z,3.97
2022-09-24T22:22:08.101Z,4.50
2022-09-24T22:24:36.545Z,4.10
2022-09-24T22:27:05.000Z,4.57
2022-09-24T22:29:32.798Z,2.97
2022-09-24T22:32:00.693Z,4.05
2022-09-24T22:34:47.081Z,5.35
2022-09-24T22:37:14.948Z,4.35
2022-09-24T22:39:42.882Z,4.20
2022-09-24T22:42:14.330Z,3.50
2022-09-24T22:44:42.194Z,3.38
2022-09-24T22:47:09.989Z,4.18
2022-09-24T22:49:38.104Z,4.63
2022-09-24T22:52:05.970Z,3.95
2022-09-24T22:54:33.813Z,4.30
2022-09-24T22:57:01.774Z,4.75
2022-09-24T22:59:29.613Z,4.45
2022-09-24T23:01:57.405Z,3.90
2022-09-24T23:04:25.341Z,5.25
2022-09-24T23:06:53.589Z,3.42
2022-09-24T23:09:21.625Z,2.30
2022-09-24T23:11:49.535Z,4.22
2022-09-24T23:14:17.328Z,4.43
2022-09-24T23:16:46.888Z,3.47
2022-09-24T23:19:18.760Z,4.03
2022-09-24T23:21:47.072Z,3.63
2022-09-24T23:24:18.697Z,3.95
2022-09-24T23:26:47.164Z,3.65
2022-09-24T23:29:15.779Z,3.53
2022-09-24T23:31:43.818Z,5.00
2022-09-24T23:34:14.220Z,3.47
2022-09-24T23:36:42.609Z,3.53
2022-09-24T23:39:10.969Z,5.68
2022-09-24T23:41:38.761Z,3.78
2022-09-24T23:44:06.919Z,3.88
2022-09-24T23:46:34.935Z,4.30
2022-09-24T23:49:03.343Z,3.28
2022-09-24T23:51:31.353Z,4.13
2022-09-24T23:53:59.290Z,3.45
2022-09-24T23:56:28.461Z,5.50
2022-09-24T23:58:56.914Z,4.22
